Time;durP1;ratioP1;P1;durP2;ratioP2;P2;SDS_P1;SDS_P2;PMS_P1;PMS_P2;Temp;Humidity;BMP_temperature;BMP_pressure;BME280_temperature;BME280_humidity;BME280_pressure;Samples;Min_cycle;Max_cycle;Signal;HPM_P1;HPM_P2
2023/09/25 00:01:32;;;;;;;4.07;2.53;;;15.20;99.90;;;;;;5101334;28;20047;-81
2023/09/25 00:04:00;;;;;;;2.20;1.88;;;15.30;99.90;;;;;;5081127;28;20059;-82
2023/09/25 00:06:26;;;;;;;4.35;2.10;;;15.30;99.90;;;;;;5080865;27;20428;-81
2023/09/25 00:08:52;;;;;;;2.92;2.20;;;15.30;99.90;;;;;;5096061;27;20058;-81
2023/09/25 00:11:17;;;;;;;3.03;2.50;;;15.30;99.90;;;;;;5077896;28;20591;-83
2023/09/25 00:13:43;;;;;;;4.00;2.40;;;15.30;99.90;;;;;;5076342;27;20042;-81
2023/09/25 00:16:12;;;;;;;2.97;2.42;;;15.30;99.90;;;;;;5116494;27;20403;-84
2023/09/25 00:18:43;;;;;;;3.15;2.00;;;15.40;99.90;;;;;;5109973;27;20035;-82
2023/09/25 00:21:09;;;;;;;3.67;2.53;;;15.30;99.90;;;;;;5078516;28;20067;-84
2023/09/25 00:23:35;;;;;;;7.65;2.92;;;15.30;99.90;;;;;;5085146;28;20078;-83
2023/09/25 00:26:04;;;;;;;4.13;2.80;;;15.40;99.90;;;;;;5071311;28;20104;-82
2023/09/25 00:28:31;;;;;;;3.65;2.53;;;15.30;99.90;;;;;;5105647;27;20527;-84
2023/09/25 00:30:57;;;;;;;4.55;2.83;;;15.40;99.90;;;;;;5079702;27;20063;-85
2023/09/25 00:33:22;;;;;;;5.18;2.88;;;15.30;99.90;;;;;;5111947;27;20171;-82
2023/09/25 00:35:48;;;;;;;5.80;2.80;;;15.30;99.90;;;;;;5113711;27;20482;-84
2023/09/25 00:38:14;;;;;;;3.05;2.53;;;15.30;99.90;;;;;;5074267;27;20039;-85
2023/09/25 00:40:39;;;;;;;4.40;2.40;;;15.40;99.90;;;;;;5082993;27;20523;-84
2023/09/25 00:43:05;;;;;;;4.00;2.70;;;15.40;99.90;;;;;;5093477;27;20043;-85
2023/09/25 00:45:36;;;;;;;2.42;2.17;;;15.40;99.90;;;;;;5078181;28;20529;-82
2023/09/25 00:48:03;;;;;;;3.55;2.83;;;15.40;99.90;;;;;;5085127;27;20055;-82
2023/09/25 00:50:31;;;;;;;4.65;2.60;;;15.30;99.90;;;;;;5088715;28;20043;-83
2023/09/25 00:53:01;;;;;;;4.10;2.60;;;15.30;99.90;;;;;;5110710;27;20578;-82
2023/09/25 00:55:27;;;;;;;4.07;2.80;;;15.30;99.90;;;;;;5115031;27;20118;-85
2023/09/25 00:57:53;;;;;;;3.35;2.80;;;15.30;99.90;;;;;;5096102;27;20135;-82
2023/09/25 01:00:19;;;;;;;5.15;3.30;;;15.30;99.90;;;;;;5107093;27;20070;-84
2023/09/25 01:02:46;;;;;;;4.10;2.90;;;15.00;99.90;;;;;;5085974;27;20074;-83
2023/09/25 01:05:12;;;;;;;4.45;2.83;;;15.20;99.90;;;;;;5110278;27;20435;-78
2023/09/25 01:07:38;;;;;;;3.28;2.55;;;15.20;99.90;;;;;;5072629;28;20130;-81
2023/09/25 01:10:07;;;;;;;4.63;3.17;;;15.20;99.90;;;;;;5090975;27;20039;-81
2023/09/25 01:12:34;;;;;;;4.15;2.88;;;15.20;99.90;;;;;;5082270;28;20045;-80
2023/09/25 01:15:01;;;;;;;4.97;2.60;;;15.30;99.90;;;;;;5077800;28;20047;-82
2023/09/25 01:17:28;;;;;;;4.15;2.80;;;15.30;99.90;;;;;;5074753;27;20093;-85
2023/09/25 01:19:54;;;;;;;4.65;2.97;;;15.30;99.90;;;;;;5083412;28;20550;-84
2023/09/25 01:22:19;;;;;;;4.10;3.05;;;15.20;99.90;;;;;;5104307;27;20065;-83
2023/09/25 01:24:45;;;;;;;6.07;3.08;;;15.30;99.90;;;;;;5087975;27;20045;-82
2023/09/25 01:27:11;;;;;;;4.43;3.00;;;15.30;99.90;;;;;;5097197;27;20043;-83
2023/09/25 01:29:37;;;;;;;4.28;2.65;;;15.30;99.90;;;;;;5059279;27;20079;-82
2023/09/25 01:32:03;;;;;;;5.00;2.90;;;15.20;99.90;;;;;;5110165;27;20031;-81
2023/09/25 01:34:28;;;;;;;4.35;3.13;;;15.30;99.90;;;;;;5092583;27;20054;-80
2023/09/25 01:36:55;;;;;;;4.40;2.60;;;15.20;99.90;;;;;;5111541;27;20047;-79
2023/09/25 01:39:20;;;;;;;4.78;2.75;;;15.20;99.90;;;;;;5075855;27;20165;-80
2023/09/25 01:41:46;;;;;;;3.30;2.78;;;15.20;99.90;;;;;;5094196;27;20118;-81
2023/09/25 01:44:12;;;;;;;4.22;2.92;;;15.20;99.90;;;;;;5081027;27;20039;-81
2023/09/25 01:46:40;;;;;;;3.35;2.90;;;15.20;99.90;;;;;;5113845;27;20035;-83
2023/09/25 01:49:07;;;;;;;4.05;3.00;;;15.20;99.90;;;;;;5111605;27;20031;-83
2023/09/25 01:51:33;;;;;;;3.13;2.83;;;15.20;99.90;;;;;;5074007;27;20039;-81
2023/09/25 01:54:00;;;;;;;7.18;2.80;;;15.20;99.90;;;;;;5110323;27;20546;-81
2023/09/25 01:56:26;;;;;;;3.95;3.03;;;15.30;99.90;;;;;;5096188;27;20076;-84
2023/09/25 01:58:51;;;;;;;3.38;2.72;;;15.20;99.90;;;;;;5110336;27;20035;-84
2023/09/25 02:01:17;;;;;;;3.15;2.72;;;15.20;99.90;;;;;;5080442;28;20035;-83
2023/09/25 02:03:43;;;;;;;4.45;2.83;;;15.20;99.90;;;;;;5068589;27;20042;-80
2023/09/25 02:06:08;;;;;;;3.90;3.00;;;15.20;99.90;;;;;;5091518;27;20031;-80
2023/09/25 02:08:34;;;;;;;4.85;3.05;;;15.20;99.90;;;;;;5095572;27;20032;-81
2023/09/25 02:11:00;;;;;;;5.05;2.50;;;15.20;99.90;;;;;;5092838;27;20491;-81
2023/09/25 02:13:26;;;;;;;3.15;2.70;;;15.20;99.90;;;;;;5062243;27;20039;-82
2023/09/25 02:15:51;;;;;;;5.13;2.95;;;15.20;99.90;;;;;;5098354;27;20080;-83
2023/09/25 02:18:17;;;;;;;3.30;2.50;;;15.20;99.90;;;;;;5078532;28;20039;-82
2023/09/25 02:20:43;;;;;;;3.67;2.90;;;15.20;99.90;;;;;;5065855;27;20029;-85
2023/09/25 02:23:09;;;;;;;3.83;2.97;;;15.10;99.90;;;;;;5075008;28;20052;-83
2023/09/25 02:25:34;;;;;;;4.03;2.60;;;15.10;99.90;;;;;;5073663;28;20046;-83
2023/09/25 02:28:00;;;;;;;3.25;2.78;;;15.10;99.90;;;;;;5074437;27;20089;-81
2023/09/25 02:30:26;;;;;;;3.25;2.92;;;15.10;99.90;;;;;;5076120;28;20044;-81
2023/09/25 02:32:51;;;;;;;2.92;2.63;;;15.20;99.90;;;;;;5087425;27;20043;-83
2023/09/25 02:35:17;;;;;;;3.92;2.88;;;15.10;99.90;;;;;;5090991;27;20067;-80
2023/09/25 02:37:44;;;;;;;3.33;2.85;;;15.10;99.90;;;;;;5075394;28;20052;-81
2023/09/25 02:40:13;;;;;;;4.38;2.85;;;15.10;99.90;;;;;;5079526;27;20456;-80
2023/09/25 02:42:40;;;;;;;3.10;2.60;;;15.20;99.90;;;;;;5092952;28;20046;-83
2023/09/25 02:45:06;;;;;;;3.40;2.88;;;15.20;99.90;;;;;;5087136;27;20072;-84
2023/09/25 02:47:32;;;;;;;6.38;2.95;;;15.20;99.90;;;;;;5080220;27;20031;-83
2023/09/25 02:49:58;;;;;;;3.58;2.85;;;15.10;99.90;;;;;;5076207;27;20410;-81
2023/09/25 02:52:24;;;;;;;3.97;3.03;;;15.10;99.90;;;;;;5104882;27;20031;-82
2023/09/25 02:54:50;;;;;;;5.10;2.70;;;15.10;99.90;;;;;;5077447;28;20450;-81
2023/09/25 02:57:16;;;;;;;4.38;3.20;;;15.10;99.90;;;;;;5093597;27;20042;-84
2023/09/25 02:59:42;;;;;;;4.18;2.80;;;15.10;99.90;;;;;;5075703;28;20036;-83
2023/09/25 03:02:07;;;;;;;4.28;2.80;;;15.00;99.90;;;;;;5078653;27;20035;-83
2023/09/25 03:04:33;;;;;;;3.20;2.90;;;15.10;99.90;;;;;;5078712;28;20104;-84
2023/09/25 03:06:59;;;;;;;3.75;2.80;;;15.00;99.90;;;;;;5061291;28;20105;-85
2023/09/25 03:09:25;;;;;;;3.67;2.83;;;15.10;99.90;;;;;;5104333;27;20054;-79
2023/09/25 03:12:02;;;;;;;4.07;3.22;;;15.20;99.90;;;;;;5108158;27;20051;-79
2023/09/25 03:14:31;;;;;;;4.38;2.70;;;15.10;99.90;;;;;;5089998;27;20126;-79
2023/09/25 03:16:56;;;;;;;3.53;2.95;;;15.00;99.90;;;;;;5111189;28;20126;-79
2023/09/25 03:19:22;;;;;;;2.78;2.45;;;15.00;99.90;;;;;;5099671;28;20108;-82
2023/09/25 03:21:48;;;;;;;3.85;2.90;;;15.00;99.90;;;;;;5067673;27;20049;-82
2023/09/25 03:24:14;;;;;;;4.20;2.92;;;15.00;99.90;;;;;;5089603;28;20104;-79
2023/09/25 03:26:40;;;;;;;5.47;3.15;;;15.00;99.90;;;;;;5065340;28;20092;-79
2023/09/25 03:29:06;;;;;;;4.38;2.70;;;15.00;99.90;;;;;;5111181;28;20035;-83
2023/09/25 03:31:32;;;;;;;4.30;2.92;;;15.00;99.90;;;;;;5108608;28;20047;-81
2023/09/25 03:33:58;;;;;;;3.50;3.20;;;15.00;99.90;;;;;;5076593;28;20125;-78
2023/09/25 03:36:24;;;;;;;3.85;3.00;;;15.00;99.90;;;;;;5075994;28;20130;-80
2023/09/25 03:38:49;;;;;;;3.33;2.60;;;15.00;99.90;;;;;;5112615;27;20047;-83
2023/09/25 03:41:15;;;;;;;3.10;2.80;;;15.00;99.90;;;;;;5113735;27;20039;-79
2023/09/25 03:43:41;;;;;;;4.28;3.15;;;15.00;99.90;;;;;;5072048;27;20035;-84
2023/09/25 03:46:07;;;;;;;5.07;3.17;;;14.90;99.90;;;;;;5080248;27;20039;-79
2023/09/25 03:48:32;;;;;;;3.83;3.05;;;14.90;99.90;;;;;;5097224;27;20084;-79
2023/09/25 03:50:59;;;;;;;3.67;2.90;;;14.90;99.90;;;;;;5098519;27;20130;-82
2023/09/25 03:53:25;;;;;;;3.22;2.92;;;14.90;99.90;;;;;;5082225;27;20027;-83
2023/09/25 03:55:51;;;;;;;5.25;3.67;;;14.90;99.90;;;;;;5087170;28;20357;-83
2023/09/25 03:58:17;;;;;;;3.95;2.72;;;15.00;99.90;;;;;;5079295;27;20646;-78
2023/09/25 04:00:43;;;;;;;4.75;3.28;;;14.90;99.90;;;;;;5082340;27;20035;-84
2023/09/25 04:03:14;;;;;;;3.03;2.75;;;15.00;99.90;;;;;;5093113;27;20039;-81
2023/09/25 04:05:40;;;;;;;4.70;3.30;;;15.00;99.90;;;;;;5102408;27;20043;-82
2023/09/25 04:08:05;;;;;;;3.85;3.17;;;15.00;99.90;;;;;;5090523;27;20118;-80
2023/09/25 04:10:32;;;;;;;4.47;3.25;;;15.00;99.90;;;;;;5096122;27;20462;-79
2023/09/25 04:12:59;;;;;;;5.07;2.60;;;15.00;99.90;;;;;;5090680;27;20046;-78
2023/09/25 04:15:25;;;;;;;4.45;3.28;;;15.00;99.90;;;;;;5061464;27;20479;-79
2023/09/25 04:17:52;;;;;;;3.38;3.05;;;15.10;99.90;;;;;;5110347;27;20126;-80
2023/09/25 04:20:24;;;;;;;3.85;3.25;;;15.00;99.90;;;;;;5109370;28;20488;-81
2023/09/25 04:22:51;;;;;;;3.90;3.20;;;15.00;99.90;;;;;;5078308;28;20087;-80
2023/09/25 04:25:19;;;;;;;4.70;3.72;;;15.00;99.90;;;;;;5094854;28;20043;-80
2023/09/25 04:27:50;;;;;;;3.78;3.25;;;15.00;99.90;;;;;;5082284;27;20118;-81
2023/09/25 04:30:17;;;;;;;3.83;3.30;;;15.00;99.90;;;;;;5099634;27;20030;-81
2023/09/25 04:32:46;;;;;;;4.28;3.08;;;15.00;99.90;;;;;;5092509;27;20048;-81
2023/09/25 04:35:15;;;;;;;3.33;2.92;;;15.00;99.90;;;;;;5083597;28;20091;-80
2023/09/25 04:37:41;;;;;;;3.83;3.15;;;15.00;99.90;;;;;;5071806;27;20449;-85
2023/09/25 04:40:14;;;;;;;5.88;3.33;;;15.00;99.90;;;;;;5078973;27;20071;-82
2023/09/25 04:42:42;;;;;;;4.90;3.45;;;15.10;99.90;;;;;;5110113;27;20047;-81
2023/09/25 04:45:13;;;;;;;4.22;2.95;;;15.00;99.90;;;;;;5114543;27;20067;-82
2023/09/25 04:47:42;;;;;;;4.05;3.30;;;15.10;99.90;;;;;;5110580;27;20449;-82
2023/09/25 04:50:09;;;;;;;4.68;3.42;;;15.10;99.90;;;;;;5077771;28;20075;-80
2023/09/25 04:52:40;;;;;;;4.38;3.20;;;15.10;99.90;;;;;;5068808;28;20035;-80
2023/09/25 04:55:12;;;;;;;3.13;2.83;;;15.10;99.90;;;;;;5094907;27;20336;-80
2023/09/25 04:57:43;;;;;;;6.60;3.53;;;15.10;99.90;;;;;;5090354;27;20035;-79
2023/09/25 05:00:32;;;;;;;5.55;3.22;;;15.10;99.90;;;;;;5078278;27;20042;-81
2023/09/25 05:02:56;;;;;;;4.65;3.58;;;15.20;99.90;;;;;;5107021;27;20040;-82
2023/09/25 05:05:23;;;;;;;3.35;2.72;;;15.20;99.90;;;;;;5069656;27;20031;-78
2023/09/25 05:07:51;;;;;;;5.05;3.70;;;15.20;99.90;;;;;;5091297;28;20032;-80
2023/09/25 05:10:19;;;;;;;3.25;2.65;;;15.30;99.90;;;;;;5087865;28;20459;-79
2023/09/25 05:12:45;;;;;;;4.00;2.83;;;15.20;99.90;;;;;;5084382;27;20035;-77
2023/09/25 05:15:12;;;;;;;4.40;3.40;;;15.30;99.90;;;;;;5097300;27;20112;-82
2023/09/25 05:17:38;;;;;;;5.28;3.35;;;15.30;99.90;;;;;;5110146;27;20050;-82
2023/09/25 05:20:15;;;;;;;5.07;3.33;;;15.30;99.90;;;;;;5096108;27;20043;-86
2023/09/25 05:22:43;;;;;;;4.20;3.22;;;15.30;99.90;;;;;;5097312;27;20035;-78
2023/09/25 05:25:11;;;;;;;3.85;3.03;;;15.30;99.90;;;;;;5113531;27;20035;-78
2023/09/25 05:27:38;;;;;;;5.22;2.97;;;15.30;99.90;;;;;;5074803;27;20042;-80
2023/09/25 05:30:06;;;;;;;3.85;3.13;;;15.30;99.90;;;;;;5080482;27;20735;-81
2023/09/25 05:32:38;;;;;;;3.78;2.80;;;15.40;99.90;;;;;;5078109;27;20043;-79
2023/09/25 05:35:04;;;;;;;4.35;3.03;;;15.30;99.90;;;;;;5093998;27;20066;-81
2023/09/25 05:37:30;;;;;;;5.15;3.00;;;15.40;99.90;;;;;;5108852;27;20073;-79
2023/09/25 05:39:56;;;;;;;4.43;3.22;;;15.40;99.90;;;;;;5090018;28;20046;-80
2023/09/25 05:42:22;;;;;;;6.53;3.45;;;15.40;99.90;;;;;;5095280;27;20391;-84
2023/09/25 05:44:49;;;;;;;5.45;3.13;;;15.50;99.90;;;;;;5073407;28;20050;-79
2023/09/25 05:47:14;;;;;;;3.03;2.70;;;15.50;99.90;;;;;;5084700;27;20083;-82
2023/09/25 05:49:41;;;;;;;4.32;3.17;;;15.50;99.90;;;;;;5109016;27;20039;-83
2023/09/25 05:52:07;;;;;;;6.03;3.55;;;15.50;99.90;;;;;;5091552;27;20035;-82
2023/09/25 05:54:33;;;;;;;4.38;3.25;;;15.60;99.90;;;;;;5063343;27;20506;-86
2023/09/25 05:57:00;;;;;;;4.70;3.20;;;15.60;99.90;;;;;;5087885;27;20074;-86
2023/09/25 05:59:25;;;;;;;6.70;3.25;;;15.60;99.90;;;;;;5086420;27;20119;-82
2023/09/25 06:01:51;;;;;;;3.67;2.90;;;15.70;99.90;;;;;;5073196;27;20477;-79
2023/09/25 06:04:17;;;;;;;5.78;3.17;;;15.70;99.90;;;;;;5090940;27;20615;-83
2023/09/25 06:06:43;;;;;;;6.22;3.35;;;15.70;99.90;;;;;;5097635;28;20165;-84
2023/09/25 06:09:15;;;;;;;4.85;3.38;;;15.70;99.90;;;;;;5083527;27;20752;-80
2023/09/25 06:11:42;;;;;;;4.57;3.20;;;15.80;99.90;;;;;;5078080;27;20056;-81
2023/09/25 06:14:09;;;;;;;7.05;4.03;;;15.80;99.90;;;;;;5092473;27;20058;-82
2023/09/25 06:16:36;;;;;;;4.13;3.40;;;15.80;99.90;;;;;;5079104;28;20052;-81
2023/09/25 06:19:03;;;;;;;6.28;3.65;;;15.80;99.90;;;;;;5097419;27;20055;-84
2023/09/25 06:21:30;;;;;;;4.10;3.00;;;15.80;99.90;;;;;;5076265;27;20049;-81
2023/09/25 06:23:56;;;;;;;4.88;3.10;;;15.80;99.90;;;;;;5074563;28;20539;-81
2023/09/25 06:26:23;;;;;;;4.72;3.10;;;15.90;99.90;;;;;;5087351;28;20128;-82
2023/09/25 06:28:50;;;;;;;3.83;3.10;;;15.90;99.90;;;;;;5094652;27;20036;-83
2023/09/25 06:31:16;;;;;;;3.65;2.53;;;16.00;99.90;;;;;;5081470;27;20510;-81
2023/09/25 06:33:43;;;;;;;3.90;2.80;;;15.90;99.90;;;;;;5105160;27;20042;-82
2023/09/25 06:36:09;;;;;;;4.82;2.53;;;16.00;99.90;;;;;;5088660;27;20039;-81
2023/09/25 06:38:35;;;;;;;5.00;2.80;;;16.00;99.90;;;;;;5080405;28;20039;-81
2023/09/25 06:41:01;;;;;;;5.10;3.30;;;16.10;99.90;;;;;;5060785;27;20123;-84
2023/09/25 06:43:27;;;;;;;3.20;2.63;;;16.10;99.90;;;;;;5073345;27;20391;-83
2023/09/25 06:45:53;;;;;;;4.93;2.97;;;16.10;99.90;;;;;;5078148;27;20039;-81
2023/09/25 06:48:19;;;;;;;3.67;2.95;;;16.20;99.90;;;;;;5093850;27;20085;-83
2023/09/25 06:50:44;;;;;;;3.05;2.75;;;16.10;99.90;;;;;;5095431;27;20043;-81
2023/09/25 06:53:10;;;;;;;4.07;3.00;;;16.20;99.90;;;;;;5085820;27;20093;-81
2023/09/25 06:55:39;;;;;;;4.80;2.80;;;16.20;99.90;;;;;;5082618;28;20075;-82
2023/09/25 06:58:05;;;;;;;4.63;3.28;;;16.20;99.90;;;;;;5069622;27;20035;-84
2023/09/25 07:00:30;;;;;;;5.55;3.28;;;16.30;99.90;;;;;;5095757;27;20035;-83
2023/09/25 07:02:56;;;;;;;4.53;3.17;;;16.30;99.90;;;;;;5078036;27;20035;-83
2023/09/25 07:05:22;;;;;;;4.78;2.90;;;16.30;99.90;;;;;;5080703;27;20031;-84
2023/09/25 07:07:48;;;;;;;4.15;2.63;;;16.30;99.90;;;;;;5066163;27;20038;-83
2023/09/25 07:10:14;;;;;;;3.03;2.70;;;16.30;99.90;;;;;;5087859;27;20109;-84
2023/09/25 07:12:40;;;;;;;4.38;2.92;;;16.40;99.90;;;;;;5076206;27;20538;-82
2023/09/25 07:15:06;;;;;;;4.63;2.92;;;16.40;99.90;;;;;;5106188;27;20031;-84
2023/09/25 07:17:32;;;;;;;3.55;2.78;;;16.40;99.90;;;;;;5094171;28;20471;-83
2023/09/25 07:19:57;;;;;;;5.10;2.50;;;16.50;99.90;;;;;;5075527;28;20085;-85
2023/09/25 07:22:27;;;;;;;3.83;2.47;;;16.50;99.90;;;;;;5091720;27;20039;-82
2023/09/25 07:24:54;;;;;;;5.07;2.75;;;16.50;99.90;;;;;;5060701;28;20121;-84
2023/09/25 07:27:21;;;;;;;4.10;2.58;;;16.60;99.90;;;;;;5105772;28;20483;-85
2023/09/25 07:29:48;;;;;;;4.05;2.67;;;16.60;99.90;;;;;;5084413;28;20039;-84
2023/09/25 07:32:15;;;;;;;5.05;3.05;;;16.60;99.90;;;;;;5095890;28;20035;-83
2023/09/25 07:34:45;;;;;;;4.15;3.10;;;16.70;99.90;;;;;;5094786;28;20039;-83
2023/09/25 07:37:12;;;;;;;4.63;2.75;;;16.80;99.90;;;;;;5110983;28;20047;-85
2023/09/25 07:39:40;;;;;;;4.50;2.72;;;16.80;99.90;;;;;;5075198;28;20100;-83
2023/09/25 07:42:08;;;;;;;5.88;2.63;;;16.90;99.90;;;;;;5093074;28;20072;-84
2023/09/25 07:44:34;;;;;;;4.10;2.50;;;16.90;99.90;;;;;;5089051;28;20442;-85
2023/09/25 07:47:06;;;;;;;4.85;2.88;;;16.90;99.90;;;;;;5088808;28;20039;-82
2023/09/25 07:49:38;;;;;;;4.90;2.65;;;17.00;99.90;;;;;;5094686;28;20523;-83
2023/09/25 07:52:10;;;;;;;3.25;2.58;;;17.00;99.90;;;;;;5093095;28;20100;-83
2023/09/25 07:54:37;;;;;;;3.75;2.42;;;17.10;99.90;;;;;;5074161;28;20495;-85
2023/09/25 07:57:03;;;;;;;3.53;2.40;;;17.20;99.90;;;;;;5096638;28;20044;-84
2023/09/25 07:59:29;;;;;;;3.28;2.20;;;17.20;99.90;;;;;;5094278;28;20078;-83
2023/09/25 08:01:55;;;;;;;3.67;2.40;;;17.40;99.90;;;;;;5110985;28;20406;-86
2023/09/25 08:04:21;;;;;;;3.67;2.83;;;17.50;99.90;;;;;;5069859;28;20043;-84
2023/09/25 08:06:47;;;;;;;3.15;2.00;;;17.60;99.90;;;;;;5076758;28;20071;-83
2023/09/25 08:09:13;;;;;;;2.97;2.40;;;17.70;99.90;;;;;;5081155;28;20083;-86
2023/09/25 08:11:39;;;;;;;3.30;2.53;;;17.80;99.90;;;;;;5076433;28;20537;-85
2023/09/25 08:14:05;;;;;;;3.95;2.10;;;17.90;99.90;;;;;;5055862;28;20043;-84
2023/09/25 08:16:32;;;;;;;3.60;2.50;;;17.90;99.90;;;;;;5094364;28;20043;-82
2023/09/25 08:18:58;;;;;;;5.30;2.17;;;18.00;99.90;;;;;;5083028;28;20036;-83
2023/09/25 08:21:26;;;;;;;2.70;2.30;;;17.90;99.90;;;;;;5106133;28;20053;-83
2023/09/25 08:23:58;;;;;;;4.30;2.28;;;18.00;99.90;;;;;;5080547;28;20799;-83
2023/09/25 08:26:30;;;;;;;2.83;2.10;;;18.00;99.90;;;;;;5062163;28;20031;-86
2023/09/25 08:28:57;;;;;;;2.45;1.85;;;18.20;99.90;;;;;;5080733;27;20031;-83
2023/09/25 08:31:23;;;;;;;3.45;2.17;;;18.20;99.90;;;;;;5082734;27;20039;-84
2023/09/25 08:33:49;;;;;;;3.17;2.28;;;18.20;99.90;;;;;;5096038;27;20035;-84
2023/09/25 08:36:15;;;;;;;5.25;2.53;;;18.30;99.90;;;;;;5094412;28;20046;-86
2023/09/25 08:38:41;;;;;;;3.35;2.15;;;18.30;99.90;;;;;;5094435;27;20039;-84
2023/09/25 08:41:06;;;;;;;3.85;2.20;;;18.40;99.90;;;;;;5090903;27;20571;-84
2023/09/25 08:43:33;;;;;;;3.28;2.03;;;18.40;99.90;;;;;;5061181;28;20043;-83
2023/09/25 08:46:00;;;;;;;2.45;1.80;;;18.40;99.90;;;;;;5055628;27;20436;-85
2023/09/25 08:48:26;;;;;;;3.05;2.33;;;18.50;99.90;;;;;;5087329;27;20035;-85
2023/09/25 08:50:52;;;;;;;2.78;1.88;;;18.50;99.90;;;;;;5077339;28;20680;-86
2023/09/25 08:53:17;;;;;;;4.00;2.00;;;18.60;99.90;;;;;;5077906;28;20548;-86
2023/09/25 08:55:43;;;;;;;3.75;1.90;;;18.70;99.90;;;;;;5085127;28;20035;-84
2023/09/25 08:58:10;;;;;;;5.30;2.60;;;18.80;99.90;;;;;;5096198;28;20036;-85
2023/09/25 09:00:40;;;;;;;2.78;2.10;;;19.00;99.90;;;;;;5084251;27;20046;-87
2023/09/25 09:03:06;;;;;;;2.88;2.03;;;19.10;99.90;;;;;;5098859;27;20043;-88
2023/09/25 09:05:31;;;;;;;3.33;2.10;;;19.10;99.90;;;;;;5114312;27;20399;-83
2023/09/25 09:08:05;;;;;;;2.65;2.08;;;19.20;99.90;;;;;;5079047;28;20032;-89
2023/09/25 09:10:32;;;;;;;3.58;3.10;;;19.30;99.90;;;;;;5080702;27;20042;-85
2023/09/25 09:12:58;;;;;;;5.20;2.20;;;19.40;99.90;;;;;;5111649;27;20368;-86
2023/09/25 09:15:30;;;;;;;2.63;1.75;;;19.50;99.90;;;;;;5110695;28;20421;-84
2023/09/25 09:17:57;;;;;;;5.07;2.25;;;19.50;99.90;;;;;;5093446;27;20043;-86
2023/09/25 09:20:37;;;;;;;3.65;1.90;;;19.60;99.90;;;;;;5081963;27;20379;-85
2023/09/25 09:23:03;;;;;;;3.63;2.20;;;19.70;99.90;;;;;;5114401;27;20055;-86
2023/09/25 09:25:29;;;;;;;2.72;1.90;;;19.80;99.90;;;;;;5088675;27;20043;-83
2023/09/25 09:27:59;;;;;;;4.32;2.00;;;19.90;99.90;;;;;;5080576;27;20121;-88
2023/09/25 09:30:28;;;;;;;3.80;1.83;;;20.00;99.90;;;;;;5115759;27;20043;-87
2023/09/25 09:32:54;;;;;;;7.18;2.25;;;20.00;99.90;;;;;;5097290;27;20098;-86
2023/09/25 09:35:28;;;;;;;3.33;2.20;;;20.00;99.90;;;;;;5099042;27;20044;-86
2023/09/25 09:37:57;;;;;;;3.17;2.00;;;20.10;99.90;;;;;;5093698;28;20391;-88
2023/09/25 09:40:33;;;;;;;2.90;2.10;;;20.20;99.90;;;;;;5080318;28;20079;-87
2023/09/25 09:42:59;;;;;;;2.80;1.80;;;20.30;99.90;;;;;;5091665;27;20047;-88
2023/09/25 09:45:28;;;;;;;3.10;2.40;;;20.40;99.90;;;;;;5066010;27;20096;-85
2023/09/25 09:47:56;;;;;;;3.90;2.05;;;20.30;99.90;;;;;;5095462;27;20051;-86
2023/09/25 09:50:27;;;;;;;4.15;2.30;;;20.40;99.90;;;;;;5087596;28;20031;-88
2023/09/25 09:52:54;;;;;;;2.70;1.73;;;20.60;99.90;;;;;;5078487;28;20122;-87
2023/09/25 09:55:24;;;;;;;3.30;2.25;;;20.60;99.90;;;;;;5079380;28;20123;-86
2023/09/25 09:57:50;;;;;;;4.15;1.90;;;20.70;99.90;;;;;;5082343;27;20047;-84
2023/09/25 10:00:16;;;;;;;2.38;1.95;;;20.80;99.90;;;;;;5098833;27;20039;-86
2023/09/25 10:02:43;;;;;;;3.75;2.10;;;20.80;99.90;;;;;;5078953;28;20122;-86
2023/09/25 10:05:17;;;;;;;2.33;1.90;;;20.90;99.90;;;;;;5087411;27;20546;-86
2023/09/25 10:08:06;;;;;;;3.50;1.92;;;21.00;99.90;;;;;;5098895;27;20054;-87
2023/09/25 10:10:33;;;;;;;2.80;2.05;;;20.90;99.90;;;;;;5088900;27;20072;-87
2023/09/25 10:12:59;;;;;;;3.33;2.00;;;20.90;99.90;;;;;;5098998;27;20420;-86
2023/09/25 10:15:25;;;;;;;6.65;2.00;;;20.90;99.90;;;;;;5098969;27;20039;-85
2023/09/25 10:17:57;;;;;;;4.43;2.40;;;21.00;99.90;;;;;;5097851;27;20050;-84
2023/09/25 10:20:37;;;;;;;3.75;2.10;;;21.00;99.90;;;;;;5089798;27;20513;-87
2023/09/25 10:23:06;;;;;;;3.22;1.92;;;21.10;99.90;;;;;;5085850;28;20040;-86
2023/09/25 10:25:52;;;;;;;3.83;2.03;;;21.10;99.90;;;;;;5079087;28;20044;-86
2023/09/25 10:28:33;;;;;;;3.42;2.17;;;21.10;99.90;;;;;;5065111;28;20036;-86
2023/09/25 10:31:01;;;;;;;3.85;2.28;;;21.20;99.90;;;;;;5091697;27;20039;-85
2023/09/25 10:33:29;;;;;;;3.65;2.22;;;21.30;99.90;;;;;;5078565;28;20105;-86
2023/09/25 10:36:01;;;;;;;3.65;2.00;;;21.40;99.90;;;;;;5083780;27;20375;-85
2023/09/25 10:38:31;;;;;;;2.80;2.00;;;21.40;99.90;;;;;;5114671;27;20039;-83
2023/09/25 10:41:06;;;;;;;3.58;2.10;;;21.50;99.90;;;;;;5098276;27;20035;-86
2023/09/25 10:43:33;;;;;;;3.40;2.10;;;21.50;99.90;;;;;;5076676;27;20117;-85
2023/09/25 10:46:00;;;;;;;3.17;2.10;;;21.60;99.90;;;;;;5097597;27;20391;-86
2023/09/25 10:48:27;;;;;;;3.33;1.83;;;21.50;99.90;;;;;;5090071;27;20043;-85
2023/09/25 10:50:59;;;;;;;3.97;2.50;;;21.50;99.90;;;;;;5083437;27;20042;-85
2023/09/25 10:53:26;;;;;;;2.60;1.90;;;21.40;99.90;;;;;;5088216;28;20047;-86
2023/09/25 10:55:53;;;;;;;3.90;1.80;;;21.40;99.90;;;;;;5100113;27;20051;-85
2023/09/25 10:58:21;;;;;;;4.97;1.98;;;21.50;99.90;;;;;;5096856;27;20051;-84
2023/09/25 11:00:49;;;;;;;3.03;1.83;;;21.50;99.90;;;;;;5074944;28;20043;-86
2023/09/25 11:03:15;;;;;;;4.68;2.40;;;21.60;99.90;;;;;;5087532;27;20316;-85
2023/09/25 11:05:43;;;;;;;2.67;1.80;;;21.60;99.90;;;;;;5094101;27;20036;-85
2023/09/25 11:08:15;;;;;;;3.72;2.40;;;21.70;99.90;;;;;;5083837;27;20383;-86
2023/09/25 11:10:41;;;;;;;3.50;2.05;;;21.60;99.90;;;;;;5097696;27;20031;-86
2023/09/25 11:13:08;;;;;;;4.75;2.35;;;21.70;99.90;;;;;;5096635;27;20041;-85
2023/09/25 11:15:40;;;;;;;3.28;2.42;;;21.70;99.90;;;;;;5077639;28;20043;-84
2023/09/25 11:18:08;;;;;;;2.28;1.95;;;21.80;99.90;;;;;;5076993;28;20038;-88
2023/09/25 11:20:34;;;;;;;3.20;2.22;;;21.80;99.90;;;;;;5071586;28;20097;-84
2023/09/25 11:23:13;;;;;;;2.25;2.00;;;21.80;99.90;;;;;;5088656;28;20039;-84
2023/09/25 11:25:44;;;;;;;3.17;1.85;;;21.90;99.90;;;;;;5073769;28;20043;-85
2023/09/25 11:28:21;;;;;;;3.17;2.13;;;22.00;99.90;;;;;;5093961;28;20048;-85
2023/09/25 11:30:47;;;;;;;2.92;1.92;;;22.00;99.90;;;;;;5107173;28;20031;-86
2023/09/25 11:33:21;;;;;;;4.75;2.30;;;22.20;99.90;;;;;;5095365;28;20031;-84
2023/09/25 11:35:51;;;;;;;2.40;1.90;;;22.20;99.90;;;;;;5076774;28;20078;-84
2023/09/25 11:38:20;;;;;;;4.00;2.03;;;22.10;99.90;;;;;;5076795;28;20039;-86
2023/09/25 11:40:46;;;;;;;3.17;2.10;;;22.00;99.90;;;;;;5068212;28;20035;-85
2023/09/25 11:43:13;;;;;;;3.17;1.83;;;22.20;99.90;;;;;;5098873;28;20064;-84
2023/09/25 11:45:40;;;;;;;3.05;1.90;;;22.30;99.90;;;;;;5067938;28;20559;-86
2023/09/25 11:48:11;;;;;;;3.85;2.33;;;22.20;99.90;;;;;;5090674;28;20081;-85
2023/09/25 11:50:39;;;;;;;2.75;1.88;;;22.30;99.90;;;;;;5069458;28;20031;-86
2023/09/25 11:53:06;;;;;;;3.83;1.85;;;22.50;99.90;;;;;;5093118;28;20510;-87
2023/09/25 11:55:38;;;;;;;2.28;1.98;;;22.50;99.90;;;;;;5114567;28;20115;-86
2023/09/25 11:58:08;;;;;;;3.30;1.95;;;22.60;99.90;;;;;;5091716;27;20031;-87
2023/09/25 12:00:35;;;;;;;4.10;2.15;;;22.60;99.90;;;;;;5101892;27;20051;-85
2023/09/25 12:03:03;;;;;;;2.60;1.70;;;22.60;99.90;;;;;;5082467;27;20038;-84
2023/09/25 12:05:29;;;;;;;2.63;1.80;;;22.50;99.90;;;;;;5080892;28;20551;-86
2023/09/25 12:07:57;;;;;;;2.35;1.80;;;22.50;99.90;;;;;;5111389;27;20076;-86
2023/09/25 12:10:22;;;;;;;2.85;2.03;;;22.60;99.90;;;;;;5067133;27;20558;-83
2023/09/25 12:12:48;;;;;;;2.22;1.73;;;22.60;99.90;;;;;;5094124;27;20035;-85
2023/09/25 12:15:16;;;;;;;2.70;1.88;;;22.40;99.90;;;;;;5097448;27;20169;-86
2023/09/25 12:17:42;;;;;;;3.28;1.90;;;22.50;99.90;;;;;;5064776;28;20043;-85
2023/09/25 12:20:14;;;;;;;4.60;2.10;;;22.60;99.90;;;;;;5106883;27;20118;-85
2023/09/25 12:22:45;;;;;;;4.03;2.10;;;22.60;99.90;;;;;;5100095;27;20043;-86
2023/09/25 12:25:13;;;;;;;4.05;1.90;;;22.80;99.90;;;;;;5096177;27;20043;-84
2023/09/25 12:27:40;;;;;;;3.70;2.10;;;22.80;99.90;;;;;;5082331;27;20039;-86
2023/09/25 12:30:14;;;;;;;3.35;2.00;;;22.70;99.90;;;;;;5085870;27;20050;-84
2023/09/25 12:32:41;;;;;;;3.70;2.13;;;22.70;99.90;;;;;;5099013;27;20047;-85
2023/09/25 12:35:15;;;;;;;4.55;2.00;;;22.80;99.90;;;;;;5084052;27;20430;-85
2023/09/25 12:37:42;;;;;;;3.05;1.92;;;22.70;99.90;;;;;;5080533;28;20380;-87
2023/09/25 12:40:08;;;;;;;7.18;2.05;;;22.80;99.90;;;;;;5080516;27;20031;-84
2023/09/25 12:42:34;;;;;;;4.35;2.00;;;22.80;99.90;;;;;;5080801;27;20115;-86
2023/09/25 12:45:00;;;;;;;3.17;2.00;;;22.90;99.90;;;;;;5098113;27;20523;-87
2023/09/25 12:47:26;;;;;;;3.13;2.20;;;22.80;99.90;;;;;;5099649;27;20031;-86
2023/09/25 12:49:56;;;;;;;2.28;1.80;;;22.80;99.90;;;;;;5077309;27;20062;-85